sensor_id;sensor_type;location;lat;lon;timestamp;temperature;humidity
39975;DHT22;25652;52.852;6.602;2024-02-14T00:01:50;7.80;90.30
39975;DHT22;25652;52.852;6.602;2024-02-14T00:04:16;7.80;90.30
39975;DHT22;25652;52.852;6.602;2024-02-14T00:06:41;7.80;90.30
39975;DHT22;25652;52.852;6.602;2024-02-14T00:09:07;7.80;90.30
39975;DHT22;25652;52.852;6.602;2024-02-14T00:11:33;7.80;90.30
39975;DHT22;25652;52.852;6.602;2024-02-14T00:13:58;7.80;90.30
39975;DHT22;25652;52.852;6.602;2024-02-14T00:16:24;7.80;90.30
39975;DHT22;25652;52.852;6.602;2024-02-14T00:18:49;7.80;90.30
39975;DHT22;25652;52.852;6.602;2024-02-14T00:21:14;7.80;90.40
39975;DHT22;25652;52.852;6.602;2024-02-14T00:23:40;7.80;90.40
39975;DHT22;25652;52.852;6.602;2024-02-14T00:26:05;7.80;90.30
39975;DHT22;25652;52.852;6.602;2024-02-14T00:28:31;7.70;90.40
39975;DHT22;25652;52.852;6.602;2024-02-14T00:30:56;7.80;90.40
39975;DHT22;25652;52.852;6.602;2024-02-14T00:33:22;7.70;90.40
39975;DHT22;25652;52.852;6.602;2024-02-14T00:35:47;7.80;90.40
39975;DHT22;25652;52.852;6.602;2024-02-14T00:38:13;7.80;90.40
39975;DHT22;25652;52.852;6.602;2024-02-14T00:40:38;7.80;90.30
39975;DHT22;25652;52.852;6.602;2024-02-14T00:43:04;7.80;90.40
39975;DHT22;25652;52.852;6.602;2024-02-14T00:45:29;7.80;90.30
39975;DHT22;25652;52.852;6.602;2024-02-14T00:47:55;7.80;90.30
39975;DHT22;25652;52.852;6.602;2024-02-14T00:50:20;7.80;90.30
39975;DHT22;25652;52.852;6.602;2024-02-14T00:52:46;7.80;90.30
39975;DHT22;25652;52.852;6.602;2024-02-14T00:55:11;7.80;90.40
39975;DHT22;25652;52.852;6.602;2024-02-14T00:57:37;7.80;90.30
39975;DHT22;25652;52.852;6.602;2024-02-14T01:00:02;7.80;90.40
39975;DHT22;25652;52.852;6.602;2024-02-14T01:02:28;7.80;90.30
39975;DHT22;25652;52.852;6.602;2024-02-14T01:04:53;7.80;90.30
39975;DHT22;25652;52.852;6.602;2024-02-14T01:07:19;7.80;90.30
39975;DHT22;25652;52.852;6.602;2024-02-14T01:09:44;7.80;90.30
39975;DHT22;25652;52.852;6.602;2024-02-14T01:12:10;7.80;90.30
39975;DHT22;25652;52.852;6.602;2024-02-14T01:14:35;7.80;90.50
39975;DHT22;25652;52.852;6.602;2024-02-14T01:17:01;7.80;90.30
39975;DHT22;25652;52.852;6.602;2024-02-14T01:19:26;7.80;90.30
39975;DHT22;25652;52.852;6.602;2024-02-14T01:21:52;7.80;90.30
39975;DHT22;25652;52.852;6.602;2024-02-14T01:24:17;7.80;90.30
39975;DHT22;25652;52.852;6.602;2024-02-14T01:26:42;7.90;90.30
39975;DHT22;25652;52.852;6.602;2024-02-14T01:29:08;7.80;90.30
39975;DHT22;25652;52.852;6.602;2024-02-14T01:31:33;7.90;90.30
39975;DHT22;25652;52.852;6.602;2024-02-14T01:33:59;7.80;90.30
39975;DHT22;25652;52.852;6.602;2024-02-14T01:36:24;7.80;90.40
39975;DHT22;25652;52.852;6.602;2024-02-14T01:38:50;7.80;90.30
39975;DHT22;25652;52.852;6.602;2024-02-14T01:41:15;7.90;90.40
39975;DHT22;25652;52.852;6.602;2024-02-14T01:43:41;7.90;90.30
39975;DHT22;25652;52.852;6.602;2024-02-14T01:46:07;7.90;90.30
39975;DHT22;25652;52.852;6.602;2024-02-14T01:48:36;7.90;90.30
39975;DHT22;25652;52.852;6.602;2024-02-14T01:51:03;7.90;90.30
39975;DHT22;25652;52.852;6.602;2024-02-14T01:53:29;7.90;90.30
39975;DHT22;25652;52.852;6.602;2024-02-14T01:55:57;7.90;90.30
39975;DHT22;25652;52.852;6.602;2024-02-14T01:58:24;7.90;90.30
39975;DHT22;25652;52.852;6.602;2024-02-14T02:00:49;7.90;90.40
39975;DHT22;25652;52.852;6.602;2024-02-14T02:03:16;7.90;90.30
39975;DHT22;25652;52.852;6.602;2024-02-14T02:05:42;7.90;90.30
39975;DHT22;25652;52.852;6.602;2024-02-14T02:08:08;7.90;90.30
39975;DHT22;25652;52.852;6.602;2024-02-14T02:10:34;7.90;90.30
39975;DHT22;25652;52.852;6.602;2024-02-14T02:12:59;7.90;90.30
39975;DHT22;25652;52.852;6.602;2024-02-14T02:15:25;7.90;90.30
39975;DHT22;25652;52.852;6.602;2024-02-14T02:17:50;8.00;90.30
39975;DHT22;25652;52.852;6.602;2024-02-14T02:20:17;7.90;90.30
39975;DHT22;25652;52.852;6.602;2024-02-14T02:22:46;7.90;90.30
39975;DHT22;25652;52.852;6.602;2024-02-14T02:25:12;8.00;90.40
39975;DHT22;25652;52.852;6.602;2024-02-14T02:27:37;8.00;90.30
39975;DHT22;25652;52.852;6.602;2024-02-14T02:30:06;8.00;90.30
39975;DHT22;25652;52.852;6.602;2024-02-14T02:32:32;8.00;90.30
39975;DHT22;25652;52.852;6.602;2024-02-14T02:34:57;8.00;90.30
39975;DHT22;25652;52.852;6.602;2024-02-14T02:37:23;8.00;90.30
39975;DHT22;25652;52.852;6.602;2024-02-14T02:39:49;8.00;90.40
39975;DHT22;25652;52.852;6.602;2024-02-14T02:42:14;8.00;90.30
39975;DHT22;25652;52.852;6.602;2024-02-14T02:44:40;8.00;90.30
39975;DHT22;25652;52.852;6.602;2024-02-14T02:47:05;8.10;90.30
39975;DHT22;25652;52.852;6.602;2024-02-14T02:49:31;8.10;90.30
39975;DHT22;25652;52.852;6.602;2024-02-14T02:51:56;8.10;90.40
39975;DHT22;25652;52.852;6.602;2024-02-14T02:54:22;8.10;90.40
39975;DHT22;25652;52.852;6.602;2024-02-14T02:56:47;8.10;90.40
39975;DHT22;25652;52.852;6.602;2024-02-14T02:59:12;8.10;90.40
39975;DHT22;25652;52.852;6.602;2024-02-14T03:01:38;8.10;90.30
39975;DHT22;25652;52.852;6.602;2024-02-14T03:04:03;8.10;90.30
39975;DHT22;25652;52.852;6.602;2024-02-14T03:06:30;8.10;90.30
39975;DHT22;25652;52.852;6.602;2024-02-14T03:08:56;8.10;90.40
39975;DHT22;25652;52.852;6.602;2024-02-14T03:11:22;8.10;90.40
39975;DHT22;25652;52.852;6.602;2024-02-14T03:13:47;8.10;90.40
39975;DHT22;25652;52.852;6.602;2024-02-14T03:16:13;8.20;90.40
39975;DHT22;25652;52.852;6.602;2024-02-14T03:18:38;8.20;90.40
39975;DHT22;25652;52.852;6.602;2024-02-14T03:21:04;8.20;90.30
39975;DHT22;25652;52.852;6.602;2024-02-14T03:23:29;8.20;90.40
39975;DHT22;25652;52.852;6.602;2024-02-14T03:25:55;8.20;90.40
39975;DHT22;25652;52.852;6.602;2024-02-14T03:28:20;8.20;90.40
39975;DHT22;25652;52.852;6.602;2024-02-14T03:30:46;8.20;90.40
39975;DHT22;25652;52.852;6.602;2024-02-14T03:33:11;8.20;90.40
39975;DHT22;25652;52.852;6.602;2024-02-14T03:35:37;8.20;90.40
39975;DHT22;25652;52.852;6.602;2024-02-14T03:38:02;8.30;90.40
39975;DHT22;25652;52.852;6.602;2024-02-14T03:40:28;8.30;90.80
39975;DHT22;25652;52.852;6.602;2024-02-14T03:42:53;8.30;90.40
39975;DHT22;25652;52.852;6.602;2024-02-14T03:45:19;8.30;90.50
39975;DHT22;25652;52.852;6.602;2024-02-14T03:47:44;8.30;90.40
39975;DHT22;25652;52.852;6.602;2024-02-14T03:50:10;8.30;90.40
39975;DHT22;25652;52.852;6.602;2024-02-14T03:52:36;8.30;90.30
39975;DHT22;25652;52.852;6.602;2024-02-14T03:55:02;8.30;90.40
39975;DHT22;25652;52.852;6.602;2024-02-14T03:57:27;8.40;90.40
39975;DHT22;25652;52.852;6.602;2024-02-14T03:59:53;8.40;90.50
39975;DHT22;25652;52.852;6.602;2024-02-14T04:02:19;8.40;90.40
39975;DHT22;25652;52.852;6.602;2024-02-14T04:04:44;8.40;90.30
39975;DHT22;25652;52.852;6.602;2024-02-14T04:07:10;8.40;90.30
39975;DHT22;25652;52.852;6.602;2024-02-14T04:09:35;8.40;90.40
39975;DHT22;25652;52.852;6.602;2024-02-14T04:12:01;8.40;90.30
39975;DHT22;25652;52.852;6.602;2024-02-14T04:14:27;8.40;90.20
39975;DHT22;25652;52.852;6.602;2024-02-14T04:16:52;8.40;90.30
39975;DHT22;25652;52.852;6.602;2024-02-14T04:19:18;8.50;90.40
39975;DHT22;25652;52.852;6.602;2024-02-14T04:21:44;8.40;90.30
39975;DHT22;25652;52.852;6.602;2024-02-14T04:24:09;8.50;90.20
39975;DHT22;25652;52.852;6.602;2024-02-14T04:26:35;8.40;90.20
39975;DHT22;25652;52.852;6.602;2024-02-14T04:29:01;8.50;90.30
39975;DHT22;25652;52.852;6.602;2024-02-14T04:31:26;8.50;90.30
39975;DHT22;25652;52.852;6.602;2024-02-14T04:33:52;8.50;90.20
39975;DHT22;25652;52.852;6.602;2024-02-14T04:36:18;8.50;90.30
39975;DHT22;25652;52.852;6.602;2024-02-14T04:38:44;8.50;90.30
39975;DHT22;25652;52.852;6.602;2024-02-14T04:41:09;8.60;90.20
39975;DHT22;25652;52.852;6.602;2024-02-14T04:43:35;8.60;90.20
39975;DHT22;25652;52.852;6.602;2024-02-14T04:46:01;8.60;90.20
39975;DHT22;25652;52.852;6.602;2024-02-14T04:48:26;8.60;90.20
39975;DHT22;25652;52.852;6.602;2024-02-14T04:50:51;8.60;90.30
39975;DHT22;25652;52.852;6.602;2024-02-14T04:53:17;8.60;90.30
39975;DHT22;25652;52.852;6.602;2024-02-14T04:55:42;8.60;90.20
39975;DHT22;25652;52.852;6.602;2024-02-14T04:58:08;8.60;90.30
39975;DHT22;25652;52.852;6.602;2024-02-14T05:00:33;8.70;90.30
39975;DHT22;25652;52.852;6.602;2024-02-14T05:02:59;8.70;90.30
39975;DHT22;25652;52.852;6.602;2024-02-14T05:05:24;8.70;90.30
39975;DHT22;25652;52.852;6.602;2024-02-14T05:07:50;8.70;90.30
39975;DHT22;25652;52.852;6.602;2024-02-14T05:10:15;8.70;90.30
39975;DHT22;25652;52.852;6.602;2024-02-14T05:12:41;8.70;90.40
39975;DHT22;25652;52.852;6.602;2024-02-14T05:15:06;8.70;90.40
39975;DHT22;25652;52.852;6.602;2024-02-14T05:17:32;8.70;90.30
39975;DHT22;25652;52.852;6.602;2024-02-14T05:19:57;8.70;90.30
39975;DHT22;25652;52.852;6.602;2024-02-14T05:22:23;8.80;90.40
39975;DHT22;25652;52.852;6.602;2024-02-14T05:24:49;8.80;90.30
39975;DHT22;25652;52.852;6.602;2024-02-14T05:27:14;8.80;90.40
39975;DHT22;25652;52.852;6.602;2024-02-14T05:29:40;8.80;90.30
39975;DHT22;25652;52.852;6.602;2024-02-14T05:32:06;8.80;90.30
39975;DHT22;25652;52.852;6.602;2024-02-14T05:34:31;8.80;90.30
39975;DHT22;25652;52.852;6.602;2024-02-14T05:36:57;8.80;90.30
39975;DHT22;25652;52.852;6.602;2024-02-14T05:39:22;8.80;90.30
39975;DHT22;25652;52.852;6.602;2024-02-14T05:41:48;8.90;90.30
39975;DHT22;25652;52.852;6.602;2024-02-14T05:44:13;8.90;90.20
39975;DHT22;25652;52.852;6.602;2024-02-14T05:46:39;8.90;90.30
39975;DHT22;25652;52.852;6.602;2024-02-14T05:49:04;8.90;90.40
39975;DHT22;25652;52.852;6.602;2024-02-14T05:51:29;8.90;90.30
39975;DHT22;25652;52.852;6.602;2024-02-14T05:53:55;8.90;90.30
39975;DHT22;25652;52.852;6.602;2024-02-14T05:56:20;8.90;90.30
39975;DHT22;25652;52.852;6.602;2024-02-14T05:58:46;9.00;90.30
39975;DHT22;25652;52.852;6.602;2024-02-14T06:01:11;9.00;90.30
39975;DHT22;25652;52.852;6.602;2024-02-14T06:03:37;9.00;90.30
39975;DHT22;25652;52.852;6.602;2024-02-14T06:06:02;9.00;90.30
39975;DHT22;25652;52.852;6.602;2024-02-14T06:08:31;9.00;90.40
39975;DHT22;25652;52.852;6.602;2024-02-14T06:10:56;9.00;90.30
39975;DHT22;25652;52.852;6.602;2024-02-14T06:13:22;9.00;90.30
39975;DHT22;25652;52.852;6.602;2024-02-14T06:15:47;9.00;90.30
39975;DHT22;25652;52.852;6.602;2024-02-14T06:18:13;9.00;90.40
39975;DHT22;25652;52.852;6.602;2024-02-14T06:20:38;9.10;90.30
39975;DHT22;25652;52.852;6.602;2024-02-14T06:23:04;9.10;90.40
39975;DHT22;25652;52.852;6.602;2024-02-14T06:25:29;9.10;90.40
39975;DHT22;25652;52.852;6.602;2024-02-14T06:27:55;9.10;90.40
39975;DHT22;25652;52.852;6.602;2024-02-14T06:30:20;9.20;90.80
39975;DHT22;25652;52.852;6.602;2024-02-14T06:32:46;9.40;90.30
39975;DHT22;25652;52.852;6.602;2024-02-14T06:35:12;9.50;90.10
39975;DHT22;25652;52.852;6.602;2024-02-14T06:37:37;9.50;90.00
39975;DHT22;25652;52.852;6.602;2024-02-14T06:40:03;9.50;90.00
39975;DHT22;25652;52.852;6.602;2024-02-14T06:42:28;9.50;90.00
39975;DHT22;25652;52.852;6.602;2024-02-14T06:44:54;9.40;90.00
39975;DHT22;25652;52.852;6.602;2024-02-14T06:47:19;9.50;90.00
39975;DHT22;25652;52.852;6.602;2024-02-14T06:49:45;9.40;90.00
39975;DHT22;25652;52.852;6.602;2024-02-14T06:52:10;9.50;90.00
39975;DHT22;25652;52.852;6.602;2024-02-14T06:54:36;9.50;90.10
39975;DHT22;25652;52.852;6.602;2024-02-14T06:57:01;9.50;90.10
39975;DHT22;25652;52.852;6.602;2024-02-14T06:59:27;9.40;90.30
39975;DHT22;25652;52.852;6.602;2024-02-14T07:01:52;9.50;90.10
39975;DHT22;25652;52.852;6.602;2024-02-14T07:04:18;9.50;90.10
39975;DHT22;25652;52.852;6.602;2024-02-14T07:06:43;9.50;90.20
39975;DHT22;25652;52.852;6.602;2024-02-14T07:09:09;9.50;90.10
39975;DHT22;25652;52.852;6.602;2024-02-14T07:11:34;9.50;90.10
39975;DHT22;25652;52.852;6.602;2024-02-14T07:13:59;9.50;90.10
39975;DHT22;25652;52.852;6.602;2024-02-14T07:16:25;9.50;90.10
39975;DHT22;25652;52.852;6.602;2024-02-14T07:18:50;9.50;90.10
39975;DHT22;25652;52.852;6.602;2024-02-14T07:21:16;9.60;90.10
39975;DHT22;25652;52.852;6.602;2024-02-14T07:23:41;9.50;90.10
39975;DHT22;25652;52.852;6.602;2024-02-14T07:26:07;9.60;90.10
39975;DHT22;25652;52.852;6.602;2024-02-14T07:28:32;9.60;90.10
39975;DHT22;25652;52.852;6.602;2024-02-14T07:30:58;9.60;90.10
39975;DHT22;25652;52.852;6.602;2024-02-14T07:33:23;9.60;90.10
39975;DHT22;25652;52.852;6.602;2024-02-14T07:35:49;9.60;90.10
39975;DHT22;25652;52.852;6.602;2024-02-14T07:38:15;9.60;90.10
39975;DHT22;25652;52.852;6.602;2024-02-14T07:40:40;9.60;90.10
39975;DHT22;25652;52.852;6.602;2024-02-14T07:43:05;9.60;90.20
39975;DHT22;25652;52.852;6.602;2024-02-14T07:45:31;9.60;90.10
39975;DHT22;25652;52.852;6.602;2024-02-14T07:47:57;9.60;90.10
39975;DHT22;25652;52.852;6.602;2024-02-14T07:50:25;9.60;90.10
39975;DHT22;25652;52.852;6.602;2024-02-14T07:52:51;9.70;90.10
39975;DHT22;25652;52.852;6.602;2024-02-14T07:55:16;9.70;90.10
39975;DHT22;25652;52.852;6.602;2024-02-14T07:57:44;9.70;90.10
39975;DHT22;25652;52.852;6.602;2024-02-14T08:00:10;9.70;90.10
39975;DHT22;25652;52.852;6.602;2024-02-14T08:02:36;9.70;90.10
39975;DHT22;25652;52.852;6.602;2024-02-14T08:05:05;9.70;90.10
39975;DHT22;25652;52.852;6.602;2024-02-14T08:07:30;9.80;90.20
39975;DHT22;25652;52.852;6.602;2024-02-14T08:09:56;9.70;90.10
39975;DHT22;25652;52.852;6.602;2024-02-14T08:12:22;9.70;90.10
39975;DHT22;25652;52.852;6.602;2024-02-14T08:14:48;9.80;90.10
39975;DHT22;25652;52.852;6.602;2024-02-14T08:17:13;9.80;90.10
39975;DHT22;25652;52.852;6.602;2024-02-14T08:19:39;9.80;90.20
39975;DHT22;25652;52.852;6.602;2024-02-14T08:22:04;9.80;90.10
39975;DHT22;25652;52.852;6.602;2024-02-14T08:24:30;9.80;90.10
39975;DHT22;25652;52.852;6.602;2024-02-14T08:26:55;9.90;90.00
39975;DHT22;25652;52.852;6.602;2024-02-14T08:29:24;9.90;90.10
39975;DHT22;25652;52.852;6.602;2024-02-14T08:31:49;9.90;90.10
39975;DHT22;25652;52.852;6.602;2024-02-14T08:34:15;9.90;90.00
39975;DHT22;25652;52.852;6.602;2024-02-14T08:36:40;9.90;90.00
39975;DHT22;25652;52.852;6.602;2024-02-14T08:39:09;9.90;90.10
39975;DHT22;25652;52.852;6.602;2024-02-14T08:41:34;9.90;90.00
39975;DHT22;25652;52.852;6.602;2024-02-14T08:44:00;10.00;90.00
39975;DHT22;25652;52.852;6.602;2024-02-14T08:46:26;10.00;90.10
39975;DHT22;25652;52.852;6.602;2024-02-14T08:48:51;10.00;90.00
39975;DHT22;25652;52.852;6.602;2024-02-14T08:51:17;10.00;90.00
39975;DHT22;25652;52.852;6.602;2024-02-14T08:57:47;10.20;94.70
39975;DHT22;25652;52.852;6.602;2024-02-14T09:00:13;10.30;93.60
39975;DHT22;25652;52.852;6.602;2024-02-14T09:02:39;10.30;92.90
39975;DHT22;25652;52.852;6.602;2024-02-14T09:05:04;10.30;92.30
39975;DHT22;25652;52.852;6.602;2024-02-14T09:07:45;10.30;91.80
39975;DHT22;25652;52.852;6.602;2024-02-14T09:10:10;10.30;91.60
39975;DHT22;25652;52.852;6.602;2024-02-14T09:12:39;10.30;91.40
39975;DHT22;25652;52.852;6.602;2024-02-14T09:15:05;10.40;91.30
39975;DHT22;25652;52.852;6.602;2024-02-14T09:17:31;10.40;91.10
39975;DHT22;25652;52.852;6.602;2024-02-14T09:19:56;10.30;91.00
39975;DHT22;25652;52.852;6.602;2024-02-14T09:22:22;10.40;91.00
39975;DHT22;25652;52.852;6.602;2024-02-14T09:24:48;10.40;90.90
39975;DHT22;25652;52.852;6.602;2024-02-14T09:27:14;10.40;90.80
39975;DHT22;25652;52.852;6.602;2024-02-14T09:29:45;10.40;90.80
39975;DHT22;25652;52.852;6.602;2024-02-14T09:32:10;10.40;90.90
39975;DHT22;25652;52.852;6.602;2024-02-14T09:34:36;10.40;91.10
39975;DHT22;25652;52.852;6.602;2024-02-14T09:37:01;10.40;90.80
39975;DHT22;25652;52.852;6.602;2024-02-14T09:39:27;10.40;90.70
39975;DHT22;25652;52.852;6.602;2024-02-14T09:41:54;10.40;90.60
39975;DHT22;25652;52.852;6.602;2024-02-14T09:44:23;10.40;90.90
39975;DHT22;25652;52.852;6.602;2024-02-14T09:46:49;10.40;90.60
39975;DHT22;25652;52.852;6.602;2024-02-14T09:49:16;10.40;90.60
39975;DHT22;25652;52.852;6.602;2024-02-14T09:51:44;10.40;90.50
39975;DHT22;25652;52.852;6.602;2024-02-14T09:54:11;10.50;90.60
39975;DHT22;25652;52.852;6.602;2024-02-14T09:56:37;10.50;90.60
39975;DHT22;25652;52.852;6.602;2024-02-14T09:59:03;10.50;90.50
39975;DHT22;25652;52.852;6.602;2024-02-14T10:01:30;10.50;90.40
39975;DHT22;25652;52.852;6.602;2024-02-14T10:03:55;10.50;90.40
39975;DHT22;25652;52.852;6.602;2024-02-14T10:06:21;10.60;90.50
39975;DHT22;25652;52.852;6.602;2024-02-14T10:08:47;10.60;90.40
39975;DHT22;25652;52.852;6.602;2024-02-14T10:11:13;10.60;90.30
39975;DHT22;25652;52.852;6.602;2024-02-14T10:13:39;10.60;90.40
39975;DHT22;25652;52.852;6.602;2024-02-14T10:16:04;10.60;90.40
39975;DHT22;25652;52.852;6.602;2024-02-14T10:18:35;10.60;90.40
39975;DHT22;25652;52.852;6.602;2024-02-14T10:21:00;10.60;90.40
39975;DHT22;25652;52.852;6.602;2024-02-14T10:23:29;10.70;90.40
39975;DHT22;25652;52.852;6.602;2024-02-14T10:25:56;10.70;90.40
39975;DHT22;25652;52.852;6.602;2024-02-14T10:28:22;10.70;90.40
39975;DHT22;25652;52.852;6.602;2024-02-14T10:30:57;10.70;90.40
39975;DHT22;25652;52.852;6.602;2024-02-14T10:33:22;10.70;90.30
39975;DHT22;25652;52.852;6.602;2024-02-14T10:35:50;10.70;90.40
39975;DHT22;25652;52.852;6.602;2024-02-14T10:38:16;10.70;90.60
39975;DHT22;25652;52.852;6.602;2024-02-14T10:40:42;10.80;90.40
39975;DHT22;25652;52.852;6.602;2024-02-14T10:43:09;10.80;90.30
39975;DHT22;25652;52.852;6.602;2024-02-14T10:45:35;10.80;90.40
39975;DHT22;25652;52.852;6.602;2024-02-14T10:48:01;10.80;90.30
39975;DHT22;25652;52.852;6.602;2024-02-14T10:50:28;10.80;90.30
39975;DHT22;25652;52.852;6.602;2024-02-14T10:52:57;10.80;90.30
39975;DHT22;25652;52.852;6.602;2024-02-14T10:55:29;10.90;90.30
39975;DHT22;25652;52.852;6.602;2024-02-14T10:57:55;10.80;90.30
39975;DHT22;25652;52.852;6.602;2024-02-14T11:00:48;10.90;90.30
39975;DHT22;25652;52.852;6.602;2024-02-14T11:03:14;10.90;90.40
39975;DHT22;25652;52.852;6.602;2024-02-14T11:05:45;10.90;90.30
39975;DHT22;25652;52.852;6.602;2024-02-14T11:08:23;10.90;90.30
39975;DHT22;25652;52.852;6.602;2024-02-14T11:10:56;11.00;90.30
39975;DHT22;25652;52.852;6.602;2024-02-14T11:13:25;11.00;90.30
39975;DHT22;25652;52.852;6.602;2024-02-14T11:15:51;11.00;90.30
39975;DHT22;25652;52.852;6.602;2024-02-14T11:18:28;11.00;90.20
39975;DHT22;25652;52.852;6.602;2024-02-14T11:20:53;11.00;90.30
39975;DHT22;25652;52.852;6.602;2024-02-14T11:23:22;11.00;90.40
39975;DHT22;25652;52.852;6.602;2024-02-14T11:25:48;11.00;90.30
39975;DHT22;25652;52.852;6.602;2024-02-14T11:28:18;11.10;90.30
39975;DHT22;25652;52.852;6.602;2024-02-14T11:30:44;11.10;90.30
39975;DHT22;25652;52.852;6.602;2024-02-14T11:33:23;11.10;90.30
39975;DHT22;25652;52.852;6.602;2024-02-14T11:35:50;11.10;90.20
39975;DHT22;25652;52.852;6.602;2024-02-14T11:38:20;11.20;90.20
39975;DHT22;25652;52.852;6.602;2024-02-14T11:40:54;11.20;90.30
39975;DHT22;25652;52.852;6.602;2024-02-14T11:43:20;11.20;90.30
39975;DHT22;25652;52.852;6.602;2024-02-14T11:45:46;11.20;90.20
39975;DHT22;25652;52.852;6.602;2024-02-14T11:48:20;11.20;90.30
39975;DHT22;25652;52.852;6.602;2024-02-14T11:50:46;11.20;90.40
39975;DHT22;25652;52.852;6.602;2024-02-14T11:53:15;11.20;90.30
39975;DHT22;25652;52.852;6.602;2024-02-14T11:55:41;11.20;90.30
39975;DHT22;25652;52.852;6.602;2024-02-14T11:58:29;11.30;90.30
39975;DHT22;25652;52.852;6.602;2024-02-14T12:00:58;11.30;90.30
39975;DHT22;25652;52.852;6.602;2024-02-14T12:03:26;11.30;90.20
39975;DHT22;25652;52.852;6.602;2024-02-14T12:05:53;11.40;90.20
39975;DHT22;25652;52.852;6.602;2024-02-14T12:08:35;11.40;90.20
39975;DHT22;25652;52.852;6.602;2024-02-14T12:11:01;11.40;90.20
39975;DHT22;25652;52.852;6.602;2024-02-14T12:13:32;11.40;90.10
39975;DHT22;25652;52.852;6.602;2024-02-14T12:16:06;11.40;90.20
39975;DHT22;25652;52.852;6.602;2024-02-14T12:18:34;11.40;90.20
39975;DHT22;25652;52.852;6.602;2024-02-14T12:21:08;11.50;90.20
39975;DHT22;25652;52.852;6.602;2024-02-14T12:23:44;11.50;90.20
39975;DHT22;25652;52.852;6.602;2024-02-14T12:26:10;11.50;90.10
39975;DHT22;25652;52.852;6.602;2024-02-14T12:28:45;11.60;90.10
39975;DHT22;25652;52.852;6.602;2024-02-14T12:31:21;11.60;90.10
39975;DHT22;25652;52.852;6.602;2024-02-14T12:33:51;11.60;90.10
39975;DHT22;25652;52.852;6.602;2024-02-14T12:36:39;11.60;90.20
39975;DHT22;25652;52.852;6.602;2024-02-14T12:39:10;11.60;90.20
39975;DHT22;25652;52.852;6.602;2024-02-14T12:41:43;11.60;90.20
39975;DHT22;25652;52.852;6.602;2024-02-14T12:44:15;11.60;90.20
39975;DHT22;25652;52.852;6.602;2024-02-14T12:46:41;11.60;90.20
39975;DHT22;25652;52.852;6.602;2024-02-14T12:49:06;11.70;90.20
39975;DHT22;25652;52.852;6.602;2024-02-14T12:51:35;11.60;90.20
39975;DHT22;25652;52.852;6.602;2024-02-14T12:54:09;11.70;90.20
39975;DHT22;25652;52.852;6.602;2024-02-14T12:56:37;11.70;90.30
39975;DHT22;25652;52.852;6.602;2024-02-14T12:59:09;11.70;90.20
39975;DHT22;25652;52.852;6.602;2024-02-14T13:01:39;11.70;90.30
39975;DHT22;25652;52.852;6.602;2024-02-14T13:04:10;11.60;90.20
39975;DHT22;25652;52.852;6.602;2024-02-14T13:06:49;11.70;90.30
39975;DHT22;25652;52.852;6.602;2024-02-14T13:09:21;11.70;90.30
39975;DHT22;25652;52.852;6.602;2024-02-14T13:11:55;11.70;90.30
39975;DHT22;25652;52.852;6.602;2024-02-14T13:14:20;11.70;90.30
39975;DHT22;25652;52.852;6.602;2024-02-14T13:16:57;11.70;90.30
39975;DHT22;25652;52.852;6.602;2024-02-14T13:19:25;11.70;90.30
39975;DHT22;25652;52.852;6.602;2024-02-14T13:24:56;11.70;90.30
39975;DHT22;25652;52.852;6.602;2024-02-14T13:27:37;11.70;90.40
39975;DHT22;25652;52.852;6.602;2024-02-14T13:33:37;11.70;90.60
39975;DHT22;25652;52.852;6.602;2024-02-14T13:45:47;11.80;90.40
39975;DHT22;25652;52.852;6.602;2024-02-14T13:48:16;11.80;90.30
39975;DHT22;25652;52.852;6.602;2024-02-14T13:50:53;11.80;90.40
39975;DHT22;25652;52.852;6.602;2024-02-14T14:07:14;11.90;90.40
39975;DHT22;25652;52.852;6.602;2024-02-14T14:09:46;11.80;90.40
39975;DHT22;25652;52.852;6.602;2024-02-14T14:12:12;11.90;90.50
39975;DHT22;25652;52.852;6.602;2024-02-14T14:14:37;11.80;90.40
39975;DHT22;25652;52.852;6.602;2024-02-14T14:17:07;11.80;90.60
39975;DHT22;25652;52.852;6.602;2024-02-14T14:19:36;11.80;90.50
39975;DHT22;25652;52.852;6.602;2024-02-14T14:22:30;11.80;90.60
39975;DHT22;25652;52.852;6.602;2024-02-14T14:24:58;11.80;90.50
39975;DHT22;25652;52.852;6.602;2024-02-14T14:27:34;11.80;90.50
39975;DHT22;25652;52.852;6.602;2024-02-14T14:30:00;11.80;90.60
39975;DHT22;25652;52.852;6.602;2024-02-14T14:32:25;11.80;90.60
39975;DHT22;25652;52.852;6.602;2024-02-14T14:34:51;11.80;90.60
39975;DHT22;25652;52.852;6.602;2024-02-14T14:37:34;11.80;90.60
39975;DHT22;25652;52.852;6.602;2024-02-14T14:40:00;11.80;90.60
39975;DHT22;25652;52.852;6.602;2024-02-14T14:45:50;11.80;90.70
39975;DHT22;25652;52.852;6.602;2024-02-14T14:51:54;11.80;90.80
39975;DHT22;25652;52.852;6.602;2024-02-14T14:54:20;11.80;90.60
39975;DHT22;25652;52.852;6.602;2024-02-14T14:56:45;11.80;90.80
39975;DHT22;25652;52.852;6.602;2024-02-14T14:59:11;11.80;90.70
39975;DHT22;25652;52.852;6.602;2024-02-14T15:01:37;11.80;90.80
39975;DHT22;25652;52.852;6.602;2024-02-14T15:04:03;11.90;90.80
39975;DHT22;25652;52.852;6.602;2024-02-14T15:06:28;11.90;90.80
39975;DHT22;25652;52.852;6.602;2024-02-14T15:08:54;11.90;90.80
39975;DHT22;25652;52.852;6.602;2024-02-14T15:11:19;11.90;90.80
39975;DHT22;25652;52.852;6.602;2024-02-14T15:13:48;11.90;90.80
39975;DHT22;25652;52.852;6.602;2024-02-14T15:16:29;11.90;90.80
39975;DHT22;25652;52.852;6.602;2024-02-14T15:18:55;11.90;90.70
39975;DHT22;25652;52.852;6.602;2024-02-14T15:21:20;11.90;90.80
39975;DHT22;25652;52.852;6.602;2024-02-14T15:23:54;11.90;90.80
39975;DHT22;25652;52.852;6.602;2024-02-14T15:26:20;11.90;90.80
39975;DHT22;25652;52.852;6.602;2024-02-14T15:41:31;11.90;90.80
39975;DHT22;25652;52.852;6.602;2024-02-14T15:50:31;11.90;90.90
39975;DHT22;25652;52.852;6.602;2024-02-14T15:53:24;11.90;90.90
39975;DHT22;25652;52.852;6.602;2024-02-14T15:55:50;11.90;90.90
39975;DHT22;25652;52.852;6.602;2024-02-14T15:58:15;11.90;90.90
39975;DHT22;25652;52.852;6.602;2024-02-14T16:00:41;11.90;90.90
39975;DHT22;25652;52.852;6.602;2024-02-14T16:03:06;11.90;91.00
39975;DHT22;25652;52.852;6.602;2024-02-14T16:05:32;11.90;90.90
39975;DHT22;25652;52.852;6.602;2024-02-14T16:07:57;11.80;90.90
39975;DHT22;25652;52.852;6.602;2024-02-14T16:10:24;11.90;91.10
39975;DHT22;25652;52.852;6.602;2024-02-14T16:12:49;11.90;91.10
39975;DHT22;25652;52.852;6.602;2024-02-14T16:15:16;11.80;91.00
39975;DHT22;25652;52.852;6.602;2024-02-14T16:17:42;11.90;91.00
39975;DHT22;25652;52.852;6.602;2024-02-14T16:20:12;11.80;91.10
39975;DHT22;25652;52.852;6.602;2024-02-14T16:22:38;11.90;91.00
39975;DHT22;25652;52.852;6.602;2024-02-14T16:25:05;11.90;91.10
39975;DHT22;25652;52.852;6.602;2024-02-14T16:27:30;11.80;91.10
39975;DHT22;25652;52.852;6.602;2024-02-14T16:29:56;11.80;91.10
39975;DHT22;25652;52.852;6.602;2024-02-14T16:32:21;11.80;91.10
39975;DHT22;25652;52.852;6.602;2024-02-14T16:35:10;11.90;91.10
39975;DHT22;25652;52.852;6.602;2024-02-14T16:37:35;11.90;91.10
39975;DHT22;25652;52.852;6.602;2024-02-14T16:40:01;11.80;91.00